Time;durP1;ratioP1;P1;durP2;ratioP2;P2;SDS_P1;SDS_P2;PMS_P1;PMS_P2;Temp;Humidity;BMP_temperature;BMP_pressure;BME280_temperature;BME280_humidity;BME280_pressure;Samples;Min_cycle;Max_cycle;Signal;HPM_P1;HPM_P2
2020/12/30 00:00:24;;;;;;;18.07;10.73;;;4.00;95.00;;;;;;5013870;28;20103;-73
2020/12/30 00:02:51;;;;;;;20.20;11.37;;;3.90;95.00;;;;;;5010789;28;20065;-73
2020/12/30 00:05:18;;;;;;;18.87;11.80;;;3.90;95.00;;;;;;5033259;28;20045;-73
2020/12/30 00:07:45;;;;;;;23.73;13.00;;;3.90;95.00;;;;;;5018512;28;20045;-74
2020/12/30 00:10:13;;;;;;;19.67;11.47;;;3.90;95.00;;;;;;4995924;28;20050;-73
2020/12/30 00:12:40;;;;;;;22.47;13.30;;;3.80;95.00;;;;;;4996579;28;20066;-73
2020/12/30 00:15:08;;;;;;;26.67;15.27;;;3.80;95.00;;;;;;5015159;28;20050;-76
2020/12/30 00:17:39;;;;;;;26.73;14.43;;;3.80;95.00;;;;;;5014854;28;20065;-77
2020/12/30 00:20:13;;;;;;;25.80;13.57;;;3.80;94.90;;;;;;5016045;28;20061;-79
2020/12/30 00:22:41;;;;;;;22.10;13.33;;;3.80;95.00;;;;;;5010979;28;20064;-77
2020/12/30 00:25:08;;;;;;;22.20;12.23;;;3.70;94.90;;;;;;5015802;28;20104;-78
2020/12/30 00:27:37;;;;;;;22.43;12.37;;;3.70;95.00;;;;;;5014798;28;20034;-77
2020/12/30 00:30:10;;;;;;;21.93;12.47;;;3.70;95.00;;;;;;4997103;28;20042;-78
2020/12/30 00:32:37;;;;;;;21.77;12.47;;;3.60;95.00;;;;;;5015758;28;20046;-77
2020/12/30 00:35:05;;;;;;;22.63;12.60;;;3.60;95.00;;;;;;5014411;28;20070;-83
2020/12/30 00:37:31;;;;;;;28.60;15.07;;;3.60;95.00;;;;;;5015786;28;20382;-78
2020/12/30 00:39:58;;;;;;;27.70;15.50;;;3.50;95.00;;;;;;5015976;28;20081;-77
2020/12/30 00:42:32;;;;;;;25.53;13.93;;;3.50;95.00;;;;;;5014080;28;20534;-79
2020/12/30 00:45:00;;;;;;;24.20;13.30;;;3.50;95.00;;;;;;5003137;28;20107;-81
2020/12/30 00:47:27;;;;;;;20.13;11.83;;;3.50;95.00;;;;;;5012490;28;20038;-79
2020/12/30 00:49:54;;;;;;;21.03;11.80;;;3.40;95.00;;;;;;4999129;28;20052;-78
2020/12/30 00:52:21;;;;;;;21.73;12.27;;;3.40;95.00;;;;;;5007573;28;20129;-78
2020/12/30 00:54:53;;;;;;;20.53;12.10;;;3.30;95.00;;;;;;5014202;28;20129;-78
2020/12/30 00:57:27;;;;;;;21.23;12.47;;;3.30;95.30;;;;;;4996065;28;20034;-88
2020/12/30 00:59:55;;;;;;;21.10;11.70;;;3.30;95.00;;;;;;5014771;28;20092;-82
2020/12/30 01:02:25;;;;;;;21.87;10.90;;;3.20;95.00;;;;;;4998691;28;20544;-81
2020/12/30 01:04:52;;;;;;;21.13;11.67;;;3.20;95.10;;;;;;5000719;28;20038;-77
2020/12/30 01:07:19;;;;;;;17.27;10.80;;;3.20;95.40;;;;;;5013507;28;20119;-78
2020/12/30 01:09:45;;;;;;;18.10;10.07;;;3.20;95.10;;;;;;5013697;28;20066;-78
2020/12/30 01:12:12;;;;;;;17.80;10.33;;;3.10;95.10;;;;;;4998531;28;20042;-79
2020/12/30 01:14:38;;;;;;;21.17;10.60;;;3.10;95.10;;;;;;4993935;28;20141;-78
2020/12/30 01:17:05;;;;;;;16.70;9.37;;;3.10;95.10;;;;;;4996332;28;20050;-78
2020/12/30 01:19:31;;;;;;;15.20;8.27;;;3.10;95.10;;;;;;5013201;28;20042;-81
2020/12/30 01:21:58;;;;;;;17.20;9.43;;;3.00;95.20;;;;;;5028691;28;20576;-82
2020/12/30 01:24:25;;;;;;;16.50;8.40;;;3.00;95.20;;;;;;5020550;28;20054;-84
2020/12/30 01:26:52;;;;;;;18.30;10.07;;;3.00;95.20;;;;;;5013907;28;20045;-82
2020/12/30 01:29:20;;;;;;;15.93;8.47;;;2.90;95.20;;;;;;5013239;28;20581;-83
2020/12/30 01:31:46;;;;;;;13.90;7.07;;;2.90;95.20;;;;;;5001288;28;20404;-80
2020/12/30 01:34:13;;;;;;;15.97;8.33;;;2.90;95.20;;;;;;5019892;28;20037;-81
2020/12/30 01:36:39;;;;;;;15.77;8.37;;;2.90;95.20;;;;;;5001228;28;20049;-80
2020/12/30 01:39:06;;;;;;;15.70;8.00;;;2.80;95.20;;;;;;4996417;28;20050;-83
2020/12/30 01:41:33;;;;;;;15.70;8.37;;;2.80;95.20;;;;;;4988239;28;20096;-81
2020/12/30 01:44:05;;;;;;;14.90;8.23;;;2.80;95.30;;;;;;5012393;28;20517;-82
2020/12/30 01:46:42;;;;;;;13.37;8.00;;;2.80;95.30;;;;;;4995827;28;20438;-80
2020/12/30 01:49:19;;;;;;;16.10;9.50;;;2.80;95.30;;;;;;5004600;28;20347;-81
2020/12/30 01:51:47;;;;;;;19.43;10.03;;;2.80;95.30;;;;;;5014260;28;20042;-81
2020/12/30 01:54:15;;;;;;;21.60;12.30;;;2.90;95.30;;;;;;5010680;28;20073;-81
2020/12/30 01:56:43;;;;;;;19.83;11.40;;;2.90;95.30;;;;;;5000416;28;20050;-81
2020/12/30 01:59:11;;;;;;;23.90;12.03;;;2.90;95.20;;;;;;5030844;28;20116;-81
2020/12/30 02:01:52;;;;;;;22.33;11.70;;;3.00;95.30;;;;;;5006518;28;20049;-81
2020/12/30 02:04:24;;;;;;;22.27;12.57;;;3.00;95.20;;;;;;5029127;28;20046;-81
2020/12/30 02:06:51;;;;;;;22.50;11.80;;;3.10;95.20;;;;;;5020046;28;20030;-81
2020/12/30 02:09:18;;;;;;;22.40;10.97;;;3.10;95.20;;;;;;5013524;28;20045;-81
2020/12/30 02:11:50;;;;;;;24.07;13.03;;;3.10;95.10;;;;;;5017276;28;20158;-81
2020/12/30 02:14:16;;;;;;;21.60;11.67;;;3.10;95.10;;;;;;5024427;28;20041;-81
2020/12/30 02:16:53;;;;;;;23.00;11.53;;;3.10;95.10;;;;;;5019736;28;20038;-81
2020/12/30 02:19:20;;;;;;;22.23;11.13;;;3.10;95.10;;;;;;5020905;28;20724;-81
2020/12/30 02:21:47;;;;;;;29.13;14.40;;;3.10;95.10;;;;;;5017587;28;20068;-81
2020/12/30 02:24:33;;;;;;;28.43;15.43;;;3.10;95.10;;;;;;5046340;28;20038;-81
2020/12/30 02:27:01;;;;;;;31.80;17.77;;;3.10;95.00;;;;;;5010810;28;20078;-81
2020/12/30 02:29:28;;;;;;;30.10;17.43;;;3.00;94.90;;;;;;5012621;28;20046;-82
2020/12/30 02:31:56;;;;;;;27.87;14.07;;;3.00;94.90;;;;;;4995715;28;20378;-82
2020/12/30 02:34:22;;;;;;;28.87;15.10;;;3.00;94.90;;;;;;5014939;28;20117;-81
2020/12/30 02:36:50;;;;;;;22.10;13.10;;;3.00;95.00;;;;;;5013286;28;20108;-81
2020/12/30 02:39:17;;;;;;;24.27;12.70;;;3.00;95.00;;;;;;5012718;28;20053;-81
2020/12/30 02:41:44;;;;;;;23.13;12.13;;;3.00;95.00;;;;;;5011573;28;20069;-81
2020/12/30 02:44:11;;;;;;;20.70;11.90;;;2.90;95.00;;;;;;5010401;28;20041;-81
2020/12/30 02:46:37;;;;;;;17.30;9.50;;;2.90;95.00;;;;;;4980919;28;20058;-81
2020/12/30 02:49:04;;;;;;;17.63;10.80;;;2.90;95.10;;;;;;4994845;28;20485;-81
2020/12/30 02:51:30;;;;;;;17.67;9.10;;;2.90;95.10;;;;;;5025663;28;20505;-81
2020/12/30 02:53:56;;;;;;;17.47;9.40;;;2.90;95.10;;;;;;5013750;28;20485;-81
2020/12/30 02:56:23;;;;;;;23.70;12.80;;;2.90;95.40;;;;;;4996242;28;20054;-82
2020/12/30 02:58:50;;;;;;;22.73;12.80;;;2.80;95.10;;;;;;5010989;28;20117;-81
2020/12/30 03:01:17;;;;;;;21.50;11.60;;;2.80;95.10;;;;;;5011334;28;20053;-81
2020/12/30 03:03:44;;;;;;;23.27;12.73;;;2.80;95.10;;;;;;5016623;28;20041;-81
2020/12/30 03:06:11;;;;;;;21.77;10.67;;;2.80;95.10;;;;;;5022502;28;20034;-81
2020/12/30 03:08:38;;;;;;;19.80;11.23;;;2.70;95.20;;;;;;5029837;28;20037;-82
2020/12/30 03:11:07;;;;;;;22.20;11.77;;;2.70;95.10;;;;;;4996441;28;20400;-81
2020/12/30 03:13:35;;;;;;;23.50;12.40;;;2.70;95.20;;;;;;5013277;28;20050;-81
2020/12/30 03:16:02;;;;;;;22.83;12.07;;;2.70;95.20;;;;;;5016949;28;20041;-81
2020/12/30 03:18:28;;;;;;;21.17;12.70;;;2.70;95.20;;;;;;5013364;28;20453;-81
2020/12/30 03:20:55;;;;;;;23.20;12.23;;;2.70;95.20;;;;;;4994736;28;20104;-81
2020/12/30 03:23:21;;;;;;;24.43;12.87;;;2.70;95.20;;;;;;5010164;28;20137;-81
2020/12/30 03:25:48;;;;;;;18.13;10.03;;;2.70;95.20;;;;;;5011546;28;20041;-81
2020/12/30 03:28:14;;;;;;;23.50;11.67;;;2.80;95.30;;;;;;5012693;28;20116;-82
2020/12/30 03:30:41;;;;;;;24.33;11.80;;;2.80;95.30;;;;;;5001734;28;20046;-82
2020/12/30 03:33:08;;;;;;;21.53;11.03;;;2.90;95.20;;;;;;5006141;28;20042;-82
2020/12/30 03:35:35;;;;;;;21.73;11.13;;;2.90;95.20;;;;;;5021605;28;20486;-81
2020/12/30 03:38:01;;;;;;;20.37;11.80;;;3.00;95.20;;;;;;5002650;28;20061;-81
2020/12/30 03:40:28;;;;;;;21.23;11.13;;;3.00;95.20;;;;;;5028252;28;20058;-81
2020/12/30 03:42:54;;;;;;;24.17;11.63;;;3.10;95.10;;;;;;5021217;28;20103;-82
2020/12/30 03:45:21;;;;;;;20.27;11.43;;;3.10;95.10;;;;;;5020569;28;20042;-82
2020/12/30 03:47:47;;;;;;;22.53;10.97;;;3.20;95.10;;;;;;5007947;28;20401;-82
2020/12/30 03:50:14;;;;;;;22.87;10.70;;;3.20;95.40;;;;;;5017351;28;20109;-82
2020/12/30 03:52:40;;;;;;;18.23;9.67;;;3.20;95.00;;;;;;5006758;28;20034;-82
2020/12/30 03:55:07;;;;;;;18.33;9.57;;;3.20;95.30;;;;;;5022455;28;20029;-82
2020/12/30 03:57:33;;;;;;;16.60;8.93;;;3.30;95.10;;;;;;5014163;28;20034;-81
2020/12/30 04:00:02;;;;;;;17.10;9.13;;;3.30;95.10;;;;;;4999999;28;20453;-82
2020/12/30 04:02:38;;;;;;;17.23;9.93;;;3.30;95.10;;;;;;5027146;28;20508;-81
2020/12/30 04:05:04;;;;;;;20.67;10.47;;;3.40;95.10;;;;;;5015747;28;20045;-81
2020/12/30 04:07:34;;;;;;;18.20;10.00;;;3.40;95.00;;;;;;5019644;28;20046;-81
2020/12/30 04:10:00;;;;;;;18.20;10.13;;;3.40;95.00;;;;;;5012704;28;20087;-82
2020/12/30 04:12:27;;;;;;;19.33;10.23;;;3.40;95.00;;;;;;5023690;28;20042;-81
2020/12/30 04:14:53;;;;;;;19.17;10.97;;;3.40;95.00;;;;;;5013911;28;20041;-82
2020/12/30 04:17:20;;;;;;;16.47;9.13;;;3.50;95.00;;;;;;5019124;28;20073;-82
2020/12/30 04:19:46;;;;;;;21.27;11.10;;;3.50;95.00;;;;;;5027576;28;20041;-82
2020/12/30 04:22:13;;;;;;;20.00;9.77;;;3.50;95.00;;;;;;5012540;28;20395;-83
2020/12/30 04:24:39;;;;;;;24.67;13.70;;;3.50;94.90;;;;;;5017217;28;20541;-83
2020/12/30 04:27:05;;;;;;;21.83;12.80;;;3.50;95.10;;;;;;5017703;28;20034;-83
2020/12/30 04:29:33;;;;;;;24.60;13.17;;;3.50;94.80;;;;;;5016168;28;20104;-83
2020/12/30 04:31:59;;;;;;;22.37;13.47;;;3.50;94.80;;;;;;5030071;28;20057;-83
2020/12/30 04:34:25;;;;;;;20.27;12.23;;;3.40;94.80;;;;;;5033674;28;20049;-84
2020/12/30 04:36:52;;;;;;;20.40;11.17;;;3.40;94.90;;;;;;5022087;28;20045;-83
2020/12/30 04:39:18;;;;;;;24.80;11.30;;;3.30;94.90;;;;;;5023646;28;20073;-83
2020/12/30 04:41:47;;;;;;;18.87;11.07;;;3.30;94.90;;;;;;5000283;28;20045;-83
2020/12/30 04:44:16;;;;;;;20.47;11.40;;;3.30;94.90;;;;;;5020126;28;20050;-83
2020/12/30 04:46:44;;;;;;;22.00;10.97;;;3.20;95.00;;;;;;5018908;28;20449;-84
2020/12/30 04:49:11;;;;;;;23.33;10.73;;;3.20;95.00;;;;;;4997481;28;20038;-84
2020/12/30 04:51:38;;;;;;;26.87;13.27;;;3.20;95.10;;;;;;5051022;28;20042;-84
2020/12/30 04:54:05;;;;;;;22.10;12.50;;;3.20;95.10;;;;;;5013083;28;20048;-84
2020/12/30 04:57:01;;;;;;;23.27;13.57;;;3.30;95.10;;;;;;4997742;28;20057;-84
2020/12/30 04:59:29;;;;;;;26.30;13.73;;;3.30;95.10;;;;;;5010909;28;20567;-84
2020/12/30 05:02:08;;;;;;;22.73;12.10;;;3.30;95.00;;;;;;5014328;28;20124;-84
2020/12/30 05:04:36;;;;;;;24.47;13.40;;;3.30;95.00;;;;;;5026982;28;20053;-84
2020/12/30 05:07:08;;;;;;;27.93;13.73;;;3.30;95.00;;;;;;5026002;28;20077;-84
2020/12/30 05:09:40;;;;;;;25.60;14.03;;;3.40;95.00;;;;;;5018814;28;20041;-83
2020/12/30 05:12:17;;;;;;;31.33;16.67;;;3.40;95.00;;;;;;5022080;28;20030;-84
2020/12/30 05:14:45;;;;;;;26.47;14.53;;;3.40;95.00;;;;;;5036860;28;20034;-84
2020/12/30 05:17:12;;;;;;;27.83;13.97;;;3.40;95.00;;;;;;5024965;28;20044;-82
2020/12/30 05:19:40;;;;;;;24.07;13.30;;;3.40;95.00;;;;;;5013325;28;20042;-84
2020/12/30 05:22:13;;;;;;;28.03;16.03;;;3.40;95.00;;;;;;5015332;28;20046;-83
2020/12/30 05:24:40;;;;;;;;;;;3.50;95.00;;;;;;5014240;28;20080;-85
2020/12/30 05:27:07;;;;;;;27.17;14.03;;;3.40;94.90;;;;;;5030637;28;19925;-84
2020/12/30 05:29:33;;;;;;;25.90;14.00;;;3.40;95.00;;;;;;5014080;28;20121;-84
2020/12/30 05:32:00;;;;;;;25.93;14.30;;;3.50;95.00;;;;;;4982495;28;20097;-83
2020/12/30 05:34:26;;;;;;;22.73;12.97;;;3.50;95.00;;;;;;5014053;28;20053;-82
2020/12/30 05:36:53;;;;;;;23.50;13.03;;;3.50;95.00;;;;;;5013872;28;20128;-84
2020/12/30 05:39:21;;;;;;;22.20;12.37;;;3.50;95.00;;;;;;5013471;28;20053;-84
2020/12/30 05:41:48;;;;;;;26.23;13.77;;;3.60;95.00;;;;;;4997486;28;20053;-84
2020/12/30 05:44:18;;;;;;;22.20;12.73;;;3.60;95.00;;;;;;5014598;28;20508;-83
2020/12/30 05:46:45;;;;;;;22.00;13.03;;;3.60;95.00;;;;;;5030112;28;20053;-84
2020/12/30 05:49:34;;;;;;;35.60;17.13;;;3.60;95.00;;;;;;4998302;28;20046;-84
2020/12/30 05:52:25;;;;;;;28.27;15.70;;;3.60;94.90;;;;;;5014641;28;20033;-84
2020/12/30 05:54:59;;;;;;;24.30;15.43;;;3.70;94.90;;;;;;5044075;28;20034;-84
2020/12/30 05:57:31;;;;;;;24.33;13.67;;;3.70;95.00;;;;;;5013474;28;20092;-84
2020/12/30 05:59:58;;;;;;;23.03;13.47;;;3.70;94.90;;;;;;5033198;28;20057;-85
2020/12/30 06:02:29;;;;;;;23.03;14.37;;;3.70;94.90;;;;;;5013326;28;20040;-84
2020/12/30 06:05:07;;;;;;;19.83;12.07;;;3.70;94.90;;;;;;5029095;28;20107;-84
2020/12/30 06:07:37;;;;;;;22.97;12.30;;;3.70;95.00;;;;;;5024161;28;20066;-84
2020/12/30 06:10:06;;;;;;;21.97;13.57;;;3.60;95.20;;;;;;4998462;28;20050;-84
2020/12/30 06:12:53;;;;;;;24.87;15.13;;;3.60;95.00;;;;;;5019719;28;20040;-84
2020/12/30 06:15:19;;;;;;;27.40;15.87;;;3.60;95.00;;;;;;4996820;28;20061;-84
2020/12/30 06:18:04;;;;;;;30.13;16.23;;;3.60;95.00;;;;;;5014490;28;20041;-84
2020/12/30 06:20:36;;;;;;;26.10;15.67;;;3.60;95.00;;;;;;5016588;28;20041;-85
2020/12/30 06:23:21;;;;;;;27.43;16.47;;;3.60;95.00;;;;;;5024700;28;20053;-85
2020/12/30 06:25:48;;;;;;;29.77;16.93;;;3.60;94.90;;;;;;5012786;28;20054;-85
2020/12/30 06:28:23;;;;;;;29.83;17.70;;;3.60;94.90;;;;;;5001117;28;20042;-85
2020/12/30 06:30:51;;;;;;;27.20;16.47;;;3.60;95.00;;;;;;5026148;28;20038;-85
2020/12/30 06:33:27;;;;;;;27.40;15.93;;;3.60;95.00;;;;;;5022849;28;20065;-85
2020/12/30 06:35:55;;;;;;;24.53;14.80;;;3.60;95.00;;;;;;5012990;28;20501;-85
2020/12/30 06:38:28;;;;;;;26.50;16.03;;;3.60;95.00;;;;;;5023207;28;20064;-85
2020/12/30 06:41:07;;;;;;;28.17;16.63;;;3.60;95.30;;;;;;5048054;28;20577;-85
2020/12/30 06:43:41;;;;;;;27.40;15.37;;;3.70;95.00;;;;;;4981473;28;20050;-84
2020/12/30 06:46:11;;;;;;;29.58;16.63;;;3.70;95.10;;;;;;5012815;28;20540;-85
2020/12/30 06:48:58;;;;;;;27.33;15.47;;;3.70;95.00;;;;;;4996983;28;20823;-85
2020/12/30 06:51:35;;;;;;;24.87;15.07;;;3.70;95.00;;;;;;5012529;28;20041;-85
2020/12/30 06:54:02;;;;;;;26.13;14.83;;;3.80;95.00;;;;;;5020245;28;20061;-85
2020/12/30 06:56:37;;;;;;;24.57;14.10;;;3.70;95.00;;;;;;5026103;28;20041;-85
2020/12/30 06:59:05;;;;;;;21.57;13.50;;;3.80;95.00;;;;;;5022786;28;20088;-84
2020/12/30 07:01:58;;;;;;;26.67;15.17;;;3.80;95.10;;;;;;5031467;28;20136;-84
2020/12/30 07:04:26;;;;;;;25.10;14.10;;;3.80;95.00;;;;;;5010933;28;20073;-84
2020/12/30 07:06:54;;;;;;;23.67;14.03;;;3.80;95.00;;;;;;5015669;28;20048;-84
2020/12/30 07:09:38;;;;;;;24.07;13.53;;;3.80;95.00;;;;;;5015657;28;20042;-85
2020/12/30 07:12:08;;;;;;;22.83;12.70;;;3.80;95.00;;;;;;5015818;28;20037;-84
2020/12/30 07:14:37;;;;;;;24.87;13.97;;;3.80;95.00;;;;;;5011984;28;20724;-85
2020/12/30 07:17:05;;;;;;;19.60;11.03;;;3.80;95.30;;;;;;4995904;28;20053;-85
2020/12/30 07:19:34;;;;;;;21.13;11.17;;;3.80;95.00;;;;;;5013770;28;20046;-85
2020/12/30 07:22:08;;;;;;;15.93;9.47;;;3.80;95.00;;;;;;5007168;28;20108;-85
2020/12/30 07:24:44;;;;;;;20.83;11.10;;;3.90;95.10;;;;;;5012048;28;20057;-84
2020/12/30 07:27:16;;;;;;;23.23;13.17;;;3.90;95.10;;;;;;5014536;28;20046;-84
2020/12/30 07:29:46;;;;;;;20.87;12.73;;;3.90;95.00;;;;;;5027464;28;20497;-83
2020/12/30 07:32:15;;;;;;;22.47;11.57;;;3.90;95.00;;;;;;5027617;28;20799;-86
2020/12/30 07:34:43;;;;;;;20.63;11.77;;;4.00;95.00;;;;;;5031643;28;20159;-84
2020/12/30 07:37:10;;;;;;;20.30;11.63;;;3.90;95.00;;;;;;5019658;28;20045;-89
2020/12/30 07:39:42;;;;;;;16.97;10.53;;;3.90;95.00;;;;;;5008369;28;20050;-82
2020/12/30 07:42:13;;;;;;;18.87;11.00;;;4.00;95.00;;;;;;5026395;28;20045;-81
2020/12/30 07:44:45;;;;;;;17.08;9.57;;;4.00;95.00;;;;;;5030978;28;20072;-80
2020/12/30 07:47:13;;;;;;;20.43;11.67;;;4.00;95.00;;;;;;5059950;28;20056;-81
2020/12/30 07:49:39;;;;;;;24.90;13.30;;;4.00;95.00;;;;;;5026722;28;20085;-82
2020/12/30 07:52:07;;;;;;;23.87;13.77;;;4.00;94.90;;;;;;5023149;28;20095;-80
2020/12/30 07:54:33;;;;;;;20.50;12.83;;;4.10;94.90;;;;;;5017451;28;20452;-81
2020/12/30 07:57:10;;;;;;;25.80;15.40;;;4.10;94.90;;;;;;4992135;28;20101;-81
2020/12/30 07:59:39;;;;;;;21.67;12.83;;;4.10;94.90;;;;;;5013823;28;20465;-81
2020/12/30 08:02:09;;;;;;;24.57;14.60;;;4.10;94.90;;;;;;5024020;28;20045;-81
2020/12/30 08:04:37;;;;;;;25.33;14.70;;;4.10;94.80;;;;;;5016024;28;20404;-82
2020/12/30 08:07:08;;;;;;;19.43;12.17;;;4.10;94.80;;;;;;4996796;28;20077;-83
2020/12/30 08:09:37;;;;;;;17.43;9.67;;;4.10;94.90;;;;;;5023031;28;20038;-80
2020/12/30 08:12:10;;;;;;;19.97;10.97;;;4.10;94.90;;;;;;5017163;28;20179;-80
2020/12/30 08:14:39;;;;;;;18.90;10.70;;;4.10;94.90;;;;;;5021358;28;20508;-84
2020/12/30 08:17:07;;;;;;;17.17;10.10;;;4.10;94.90;;;;;;5019906;28;20088;-84
2020/12/30 08:19:48;;;;;;;17.67;10.23;;;4.10;94.90;;;;;;5038055;28;20108;-85
2020/12/30 08:22:18;;;;;;;16.03;8.33;;;4.10;94.90;;;;;;5011030;28;20124;-84
2020/12/30 08:24:56;;;;;;;16.20;8.93;;;4.10;95.00;;;;;;5005686;28;20058;-84
2020/12/30 08:27:28;;;;;;;13.85;8.32;;;4.20;95.00;;;;;;5029937;28;20045;-83
2020/12/30 08:29:57;;;;;;;19.93;11.20;;;4.20;95.00;;;;;;5026229;28;20117;-84
2020/12/30 08:32:33;;;;;;;20.27;10.93;;;4.20;95.00;;;;;;5035893;28;20034;-84
2020/12/30 08:35:23;;;;;;;14.23;8.13;;;4.20;95.00;;;;;;5035837;28;20505;-83
2020/12/30 08:38:25;;;;;;;16.23;9.47;;;4.20;95.00;;;;;;5035834;28;20034;-84
2020/12/30 08:40:53;;;;;;;17.77;9.77;;;4.20;95.00;;;;;;5010908;28;20096;-85
2020/12/30 08:43:49;;;;;;;21.70;11.53;;;4.20;95.00;;;;;;5007925;28;20041;-82
2020/12/30 08:46:25;;;;;;;21.87;12.90;;;4.30;95.00;;;;;;5023830;28;20054;-84
2020/12/30 08:48:53;;;;;;;21.03;12.33;;;4.20;95.00;;;;;;4998221;28;20116;-86
2020/12/30 08:51:30;;;;;;;19.97;11.23;;;4.30;95.00;;;;;;4992397;28;20053;-85
2020/12/30 08:53:57;;;;;;;18.13;10.90;;;4.30;95.00;;;;;;5014499;28;20099;-85
2020/12/30 08:56:24;;;;;;;18.77;10.90;;;4.30;95.00;;;;;;5012207;28;20042;-84
2020/12/30 08:58:57;;;;;;;22.10;12.47;;;4.30;95.00;;;;;;5019491;28;20449;-87
2020/12/30 09:01:30;;;;;;;24.00;13.03;;;4.30;95.00;;;;;;5015615;28;20141;-85
2020/12/30 09:04:11;;;;;;;25.67;14.18;;;4.30;95.00;;;;;;5021738;28;20541;-86
2020/12/30 09:06:38;;;;;;;24.77;14.93;;;4.30;95.00;;;;;;5003779;28;20100;-85
2020/12/30 09:09:13;;;;;;;29.10;16.17;;;4.30;95.00;;;;;;5026244;28;20050;-84
2020/12/30 09:11:46;;;;;;;28.10;16.10;;;4.30;95.20;;;;;;5025347;28;20066;-84
2020/12/30 09:14:14;;;;;;;30.52;17.15;;;4.30;95.00;;;;;;5015205;28;20131;-84
2020/12/30 09:17:02;;;;;;;32.07;17.73;;;4.40;95.00;;;;;;4997533;28;20065;-85
2020/12/30 09:19:30;;;;;;;29.73;17.30;;;4.40;95.00;;;;;;5012540;28;20045;-84
2020/12/30 09:22:09;;;;;;;29.30;16.27;;;4.40;95.00;;;;;;5021928;28;20121;-84
2020/12/30 09:24:40;;;;;;;29.90;16.90;;;4.40;95.10;;;;;;5024462;28;20038;-84
2020/12/30 09:27:21;;;;;;;27.80;16.77;;;4.40;95.10;;;;;;5022654;28;20049;-84
2020/12/30 09:30:07;;;;;;;27.10;16.43;;;4.50;95.10;;;;;;4991344;28;20056;-83
2020/12/30 09:32:34;;;;;;;26.67;16.67;;;4.50;95.10;;;;;;5014641;28;20130;-83
2020/12/30 09:35:02;;;;;;;29.53;17.43;;;4.50;95.00;;;;;;5013321;28;20375;-83
2020/12/30 09:37:29;;;;;;;34.63;19.20;;;4.50;95.00;;;;;;5014226;28;20049;-83
2020/12/30 09:40:22;;;;;;;29.73;17.80;;;4.50;95.00;;;;;;5016686;28;20053;-83
2020/12/30 09:42:49;;;;;;;30.02;18.75;;;4.60;95.00;;;;;;5034206;28;20085;-82
2020/12/30 09:45:20;;;;;;;30.07;17.47;;;4.60;95.00;;;;;;5022062;28;20053;-83
2020/12/30 09:47:47;;;;;;;31.27;18.10;;;4.60;95.00;;;;;;5001084;28;20390;-83
2020/12/30 09:50:17;;;;;;;31.17;17.50;;;4.70;95.00;;;;;;5034343;28;20037;-83
2020/12/30 09:52:45;;;;;;;29.83;16.33;;;4.70;95.00;;;;;;5032571;28;20375;-83
2020/12/30 09:55:12;;;;;;;28.70;16.73;;;4.70;95.00;;;;;;5034274;28;20888;-83
2020/12/30 09:57:39;;;;;;;29.03;16.53;;;4.80;95.00;;;;;;5001571;28;20049;-82
2020/12/30 10:00:07;;;;;;;27.10;16.37;;;4.80;95.00;;;;;;5004309;28;20458;-84
2020/12/30 10:02:34;;;;;;;28.00;16.40;;;4.80;94.90;;;;;;5052354;28;20429;-84
2020/12/30 10:05:01;;;;;;;29.37;15.13;;;4.90;95.00;;;;;;4992902;28;20096;-83
2020/12/30 10:07:27;;;;;;;27.83;15.53;;;4.90;95.00;;;;;;5000769;28;20053;-84
2020/12/30 10:09:54;;;;;;;26.80;15.43;;;5.00;95.00;;;;;;5009559;28;20033;-83
2020/12/30 10:12:21;;;;;;;26.37;14.70;;;5.00;94.90;;;;;;5023393;28;20101;-89
2020/12/30 10:14:48;;;;;;;23.13;14.63;;;5.00;94.90;;;;;;5022313;28;20054;-86
2020/12/30 10:17:14;;;;;;;26.97;15.67;;;5.00;94.90;;;;;;4996411;28;20431;-85
2020/12/30 10:19:41;;;;;;;26.10;15.63;;;5.00;94.90;;;;;;5008010;28;20042;-82
2020/12/30 10:22:12;;;;;;;23.60;15.07;;;5.00;94.90;;;;;;5012779;28;20042;-80
2020/12/30 10:24:47;;;;;;;31.07;16.03;;;5.10;95.00;;;;;;5045284;28;20034;-82
2020/12/30 10:27:15;;;;;;;27.87;15.00;;;5.10;94.90;;;;;;5009943;28;20149;-85
2020/12/30 10:29:42;;;;;;;25.20;15.20;;;5.10;94.90;;;;;;5032057;28;20446;-84
2020/12/30 10:32:08;;;;;;;26.57;15.60;;;5.10;94.90;;;;;;5012638;28;20073;-85
2020/12/30 10:34:35;;;;;;;26.20;16.20;;;5.10;94.90;;;;;;5028960;28;20045;-84
2020/12/30 10:37:05;;;;;;;30.43;16.80;;;5.10;94.90;;;;;;5013187;28;20064;-84
2020/12/30 10:39:33;;;;;;;31.90;17.87;;;5.10;94.90;;;;;;5007344;28;20049;-85
2020/12/30 10:42:01;;;;;;;26.97;16.53;;;5.10;94.80;;;;;;5007955;28;20097;-85
2020/12/30 10:44:28;;;;;;;31.47;18.00;;;5.10;94.80;;;;;;5012777;28;20440;-85
2020/12/30 10:46:55;;;;;;;30.00;18.83;;;5.10;94.80;;;;;;5017356;28;20038;-84
2020/12/30 10:49:26;;;;;;;29.27;17.10;;;5.10;94.80;;;;;;5038784;28;20038;-87
2020/12/30 10:51:53;;;;;;;30.70;17.63;;;5.10;94.90;;;;;;4994126;28;20132;-86
2020/12/30 10:54:22;;;;;;;30.70;16.07;;;5.10;94.80;;;;;;4997149;28;20394;-86
2020/12/30 10:56:50;;;;;;;31.73;17.63;;;5.10;94.80;;;;;;5019124;28;20053;-87
2020/12/30 10:59:18;;;;;;;29.07;15.97;;;5.20;94.80;;;;;;5017507;28;20161;-85
2020/12/30 11:01:52;;;;;;;27.87;16.70;;;5.20;94.80;;;;;;5016368;28;20038;-83
2020/12/30 11:04:20;;;;;;;26.30;15.60;;;5.20;94.80;;;;;;5006518;28;20069;-83
2020/12/30 11:06:47;;;;;;;29.37;17.40;;;5.20;94.70;;;;;;4982251;28;20070;-82
2020/12/30 11:09:13;;;;;;;31.30;18.77;;;5.20;94.70;;;;;;5017684;28;20038;-82
2020/12/30 11:11:40;;;;;;;30.70;17.83;;;5.20;94.60;;;;;;4996836;28;20584;-83
2020/12/30 11:14:07;;;;;;;25.77;15.53;;;5.20;94.60;;;;;;5009847;28;20478;-83
2020/12/30 11:16:37;;;;;;;34.57;17.17;;;5.20;94.70;;;;;;5012816;28;20502;-83
2020/12/30 11:19:03;;;;;;;24.50;14.97;;;5.30;94.80;;;;;;5017184;28;20038;-84
2020/12/30 11:21:30;;;;;;;25.20;14.73;;;5.30;94.80;;;;;;5012036;28;20038;-85
2020/12/30 11:23:56;;;;;;;22.97;13.13;;;5.40;94.80;;;;;;4995870;28;20072;-85
2020/12/30 11:26:23;;;;;;;23.30;14.20;;;5.50;94.80;;;;;;5012866;28;20046;-84
2020/12/30 11:28:49;;;;;;;20.43;12.23;;;5.50;94.70;;;;;;4979998;28;20070;-84
2020/12/30 11:31:15;;;;;;;22.23;14.27;;;5.60;94.70;;;;;;5028069;28;20037;-84
2020/12/30 11:33:42;;;;;;;26.73;16.43;;;5.70;94.60;;;;;;4989718;28;20042;-83
2020/12/30 11:36:09;;;;;;;25.20;15.83;;;5.70;94.60;;;;;;4987338;28;20061;-84
2020/12/30 11:38:35;;;;;;;22.37;14.93;;;5.70;94.50;;;;;;5015913;28;20068;-84
2020/12/30 11:41:02;;;;;;;25.80;16.13;;;5.70;94.70;;;;;;5011764;28;20485;-84
2020/12/30 11:43:29;;;;;;;25.63;15.23;;;5.70;94.50;;;;;;4995241;28;20161;-83
2020/12/30 11:45:55;;;;;;;29.83;17.00;;;5.70;94.50;;;;;;5011455;28;20451;-80
2020/12/30 11:48:22;;;;;;;27.23;17.07;;;5.60;94.50;;;;;;5039449;28;20084;-84
2020/12/30 11:50:49;;;;;;;25.33;15.60;;;5.60;94.40;;;;;;5011575;28;20046;-83
2020/12/30 11:53:15;;;;;;;25.23;15.37;;;5.60;94.50;;;;;;5027711;28;20108;-83
2020/12/30 11:55:42;;;;;;;28.37;14.43;;;5.70;94.50;;;;;;5012710;28;20041;-83
2020/12/30 11:58:08;;;;;;;24.37;14.37;;;5.70;94.50;;;;;;5014019;28;20604;-79
2020/12/30 12:00:34;;;;;;;25.97;16.03;;;5.70;94.50;;;;;;5031623;28;20081;-80
2020/12/30 12:03:01;;;;;;;18.20;11.70;;;5.70;94.50;;;;;;4995949;28;20062;-82
2020/12/30 12:05:28;;;;;;;18.13;10.73;;;5.70;94.50;;;;;;5020440;28;20041;-80
2020/12/30 12:07:56;;;;;;;20.43;11.73;;;5.70;94.60;;;;;;5027496;28;20040;-83
2020/12/30 12:10:22;;;;;;;21.43;13.67;;;5.80;94.60;;;;;;5021139;28;20108;-81
2020/12/30 12:12:49;;;;;;;22.50;13.63;;;5.80;94.80;;;;;;5035179;28;20041;-80
2020/12/30 12:15:16;;;;;;;21.20;13.83;;;5.80;94.50;;;;;;5018650;28;20041;-79
2020/12/30 12:17:42;;;;;;;18.90;12.50;;;5.80;94.40;;;;;;5035105;28;20049;-79
2020/12/30 12:20:09;;;;;;;19.07;11.90;;;5.80;94.40;;;;;;5018749;28;20121;-81
2020/12/30 12:22:35;;;;;;;18.90;11.57;;;5.80;94.50;;;;;;5028274;28;20132;-79
2020/12/30 12:25:02;;;;;;;17.80;10.47;;;5.90;94.50;;;;;;5011888;28;20107;-80
2020/12/30 12:27:28;;;;;;;16.07;9.27;;;5.90;94.50;;;;;;4999583;28;20038;-79
2020/12/30 12:29:55;;;;;;;19.27;11.07;;;5.90;94.60;;;;;;4999137;28;20045;-87
2020/12/30 12:32:24;;;;;;;18.17;9.60;;;5.90;94.50;;;;;;5015706;28;20091;-81
2020/12/30 12:34:55;;;;;;;17.27;9.73;;;5.90;94.50;;;;;;5025387;28;20046;-80
2020/12/30 12:37:25;;;;;;;13.50;8.75;;;5.90;94.50;;;;;;5017325;28;20437;-84
2020/12/30 12:39:53;;;;;;;15.27;8.70;;;6.00;94.50;;;;;;5025632;28;20054;-83
2020/12/30 12:42:21;;;;;;;13.93;8.60;;;6.00;94.50;;;;;;5014157;28;20046;-82
2020/12/30 12:44:47;;;;;;;16.83;9.37;;;6.00;94.40;;;;;;5015919;28;20073;-82
2020/12/30 12:47:14;;;;;;;12.63;8.43;;;6.10;94.40;;;;;;5014699;28;20073;-81
2020/12/30 12:49:42;;;;;;;14.70;9.23;;;6.10;94.40;;;;;;5035125;28;20042;-82